map of KBVY home
KBVY - Airport
Location
City:  Beverly, Massachusetts, United States
Name:Beverly Regional
ICAO:KBVY
FAA LID:BVY

Details
Type:Airport (Airfield)
Use:Public/Civil, International (customs landing rights)
Latitude:4235'03"N (42.584139)
Longitude:7054'58"W (-70.916138)
Datum:WGS 1984
Elevation:107 ft (33 m)
Variation:14.57W (WMM2015v2 magnetic declination)
0.09 annual change
Runways:2
Longest:5001 × 100 ft (1524 × 30.5 m), paved

Time
Time Zone:UTC-5 (DST-4)
Local Time:

Weather
METAR:KBVY 041353Z 23008KT 9SM CLR 06/00 A3004 RMK AO2 SLP167 T00610000

Related Locations
Nearby:
Farthest:YAUG: 11776 mi / 18951 km
Augusta [Augusta Airport], WA, AU

Find:

   beyond  
but within

Other Information
Maps:
NOTAMs:
Links:
Sources:

  
  • flag of United States
  • flag of Massachusetts
  

Airport Diagram

Airport diagram for KBVY

Airport diagram PDF from FAA

Sectional Chart

Flight Planning
at skyvector.com

Satellite Image

Google Maps Satellite view

 

Copyright © 2004-2019 Karl L. Swartz. All rights reserved.
The Great Circle Mapper name and logo are trademarks of the Great Circle Mapper.
All other trademarks mentioned herein belong to their respective owners.
Please see credits for attibutions and further copyright information.

  Follow gcmap on Facebook Follow gcmap on Twitter GCmap on LinkedIn

hCard Microformat

Geo Microformat